Terminal Aerodrome Forecast
Issued by NWS

Home | Current Version | Previous Version | Text Only | Print | Product List | Glossary On
Versions: 1 2 3 4 5 6 7 8 9 10 11 12 13 14 15 16 17 18 19
000
FTUS46 KMTR 260500
TAFSJC
TAF
KSJC 260520Z 2606/2706 23009KT P6SM FEW020 SCT035
     FM260900 31005KT P6SM SCT020
     FM261900 31012KT P6SM FEW030
     FM270200 29007KT P6SM FEW030=

USA.gov is the U.S. government's official web portal to all federal, state and local government web resources and services.